< < Back
Terminal Aerodrome Forecast


Current Version              Previous Versions:   1  2  3  4  5  6  7  8  9  

Terminal Aerodrome Forecast

359
FTUS44 KOHX 010704 AAA
TAFCSV
TAF AMD
KCSV 010704Z 0107/0206 16003KT P6SM VCSH OVC009
     FM011000 21006KT 4SM BR OVC007
     FM011500 20007KT P6SM BKN030
     FM020200 24005KT P6SM VCSH SCT035 BKN060=

Latest METAR

522
SAUS70 KWBC 011700 RRK
MTRCSV
METAR KCSV 011653Z AUTO VRB06G14KT 10SM BKN029 BKN050 23/16 A3002 RMK
AO2 SLP146 T02330156


USA.gov is the U.S. government's official web portal to all federal, state and local government web resources and services.